sensor_id;sensor_type;location;lat;lon;timestamp;P1;durP1;ratioP1;P2;durP2;ratioP2
37895;SDS011;23733;53.254;10.430;2022-11-15T00:00:53;27.90;;;15.40;;
37895;SDS011;23733;53.254;10.430;2022-11-15T00:03:20;24.37;;;16.10;;
37895;SDS011;23733;53.254;10.430;2022-11-15T00:05:48;24.47;;;15.63;;
37895;SDS011;23733;53.254;10.430;2022-11-15T00:08:14;22.23;;;15.03;;
37895;SDS011;23733;53.254;10.430;2022-11-15T00:10:40;23.27;;;15.77;;
37895;SDS011;23733;53.254;10.430;2022-11-15T00:13:07;26.10;;;16.30;;
37895;SDS011;23733;53.254;10.430;2022-11-15T00:15:34;30.87;;;16.93;;
37895;SDS011;23733;53.254;10.430;2022-11-15T00:18:02;23.83;;;15.70;;
37895;SDS011;23733;53.254;10.430;2022-11-15T00:20:34;23.20;;;15.53;;
37895;SDS011;23733;53.254;10.430;2022-11-15T00:23:02;23.17;;;14.57;;
37895;SDS011;23733;53.254;10.430;2022-11-15T00:25:29;21.97;;;15.53;;
37895;SDS011;23733;53.254;10.430;2022-11-15T00:27:56;23.50;;;15.50;;
37895;SDS011;23733;53.254;10.430;2022-11-15T00:30:23;24.13;;;15.97;;
37895;SDS011;23733;53.254;10.430;2022-11-15T00:32:49;26.43;;;15.70;;
37895;SDS011;23733;53.254;10.430;2022-11-15T00:35:15;22.27;;;14.03;;
37895;SDS011;23733;53.254;10.430;2022-11-15T00:37:41;23.13;;;14.77;;
37895;SDS011;23733;53.254;10.430;2022-11-15T00:40:08;23.53;;;15.50;;
37895;SDS011;23733;53.254;10.430;2022-11-15T00:42:35;20.60;;;14.90;;
37895;SDS011;23733;53.254;10.430;2022-11-15T00:45:01;25.87;;;15.00;;
37895;SDS011;23733;53.254;10.430;2022-11-15T00:47:27;24.20;;;15.07;;
37895;SDS011;23733;53.254;10.430;2022-11-15T00:49:53;23.03;;;15.30;;
37895;SDS011;23733;53.254;10.430;2022-11-15T00:52:19;22.73;;;14.53;;
37895;SDS011;23733;53.254;10.430;2022-11-15T00:54:45;21.90;;;14.57;;
37895;SDS011;23733;53.254;10.430;2022-11-15T00:57:11;21.70;;;14.73;;
37895;SDS011;23733;53.254;10.430;2022-11-15T00:59:37;21.27;;;14.77;;
37895;SDS011;23733;53.254;10.430;2022-11-15T01:02:03;22.00;;;14.40;;
37895;SDS011;23733;53.254;10.430;2022-11-15T01:04:29;23.30;;;15.47;;
37895;SDS011;23733;53.254;10.430;2022-11-15T01:06:55;22.30;;;15.47;;
37895;SDS011;23733;53.254;10.430;2022-11-15T01:09:21;22.67;;;13.20;;
37895;SDS011;23733;53.254;10.430;2022-11-15T01:11:47;24.60;;;14.23;;
37895;SDS011;23733;53.254;10.430;2022-11-15T01:14:13;22.37;;;14.57;;
37895;SDS011;23733;53.254;10.430;2022-11-15T01:16:39;20.87;;;14.63;;
37895;SDS011;23733;53.254;10.430;2022-11-15T01:19:05;22.05;;;15.93;;
37895;SDS011;23733;53.254;10.430;2022-11-15T01:21:31;20.20;;;14.67;;
37895;SDS011;23733;53.254;10.430;2022-11-15T01:23:57;23.27;;;14.10;;
37895;SDS011;23733;53.254;10.430;2022-11-15T01:26:24;23.47;;;14.33;;
37895;SDS011;23733;53.254;10.430;2022-11-15T01:28:50;21.97;;;14.33;;
37895;SDS011;23733;53.254;10.430;2022-11-15T01:31:18;21.90;;;14.23;;
37895;SDS011;23733;53.254;10.430;2022-11-15T01:33:45;21.57;;;13.47;;
37895;SDS011;23733;53.254;10.430;2022-11-15T01:36:16;20.27;;;13.63;;
37895;SDS011;23733;53.254;10.430;2022-11-15T01:38:44;20.87;;;13.70;;
37895;SDS011;23733;53.254;10.430;2022-11-15T01:41:16;19.93;;;13.57;;
37895;SDS011;23733;53.254;10.430;2022-11-15T01:43:45;21.30;;;14.03;;
37895;SDS011;23733;53.254;10.430;2022-11-15T01:46:24;21.40;;;13.03;;
37895;SDS011;23733;53.254;10.430;2022-11-15T01:48:57;18.83;;;13.13;;
37895;SDS011;23733;53.254;10.430;2022-11-15T01:51:27;18.83;;;13.40;;
37895;SDS011;23733;53.254;10.430;2022-11-15T01:53:58;21.73;;;12.90;;
37895;SDS011;23733;53.254;10.430;2022-11-15T01:56:33;18.57;;;12.43;;
37895;SDS011;23733;53.254;10.430;2022-11-15T01:59:04;20.27;;;13.17;;
37895;SDS011;23733;53.254;10.430;2022-11-15T02:01:32;23.23;;;13.63;;
37895;SDS011;23733;53.254;10.430;2022-11-15T02:03:59;21.10;;;13.53;;
37895;SDS011;23733;53.254;10.430;2022-11-15T02:06:31;21.30;;;13.53;;
37895;SDS011;23733;53.254;10.430;2022-11-15T02:08:57;20.60;;;11.80;;
37895;SDS011;23733;53.254;10.430;2022-11-15T02:11:24;19.57;;;12.03;;
37895;SDS011;23733;53.254;10.430;2022-11-15T02:13:51;19.77;;;12.67;;
37895;SDS011;23733;53.254;10.430;2022-11-15T02:16:42;20.10;;;13.10;;
37895;SDS011;23733;53.254;10.430;2022-11-15T02:30:52;20.83;;;13.70;;
37895;SDS011;23733;53.254;10.430;2022-11-15T02:36:15;18.13;;;12.10;;
37895;SDS011;23733;53.254;10.430;2022-11-15T02:38:55;19.17;;;13.00;;
37895;SDS011;23733;53.254;10.430;2022-11-15T02:41:35;21.63;;;13.57;;
37895;SDS011;23733;53.254;10.430;2022-11-15T02:44:15;20.47;;;13.60;;
37895;SDS011;23733;53.254;10.430;2022-11-15T02:49:39;21.67;;;13.63;;
37895;SDS011;23733;53.254;10.430;2022-11-15T02:52:13;20.07;;;12.83;;
37895;SDS011;23733;53.254;10.430;2022-11-15T02:54:52;20.57;;;13.57;;
37895;SDS011;23733;53.254;10.430;2022-11-15T02:57:28;21.33;;;13.67;;
37895;SDS011;23733;53.254;10.430;2022-11-15T03:00:29;17.63;;;12.60;;
37895;SDS011;23733;53.254;10.430;2022-11-15T03:05:44;21.97;;;13.93;;
37895;SDS011;23733;53.254;10.430;2022-11-15T03:10:54;24.73;;;15.37;;
37895;SDS011;23733;53.254;10.430;2022-11-15T03:13:27;22.23;;;13.97;;
37895;SDS011;23733;53.254;10.430;2022-11-15T03:16:02;24.80;;;14.10;;
37895;SDS011;23733;53.254;10.430;2022-11-15T03:18:32;21.37;;;14.27;;
37895;SDS011;23733;53.254;10.430;2022-11-15T03:21:04;23.13;;;12.87;;
37895;SDS011;23733;53.254;10.430;2022-11-15T03:23:33;16.87;;;11.10;;
37895;SDS011;23733;53.254;10.430;2022-11-15T03:26:05;17.90;;;11.60;;
37895;SDS011;23733;53.254;10.430;2022-11-15T03:28:36;16.17;;;11.30;;
37895;SDS011;23733;53.254;10.430;2022-11-15T03:31:08;19.50;;;14.33;;
37895;SDS011;23733;53.254;10.430;2022-11-15T03:33:55;20.43;;;11.63;;
37895;SDS011;23733;53.254;10.430;2022-11-15T03:36:25;17.83;;;11.83;;
37895;SDS011;23733;53.254;10.430;2022-11-15T03:38:53;18.83;;;12.63;;
37895;SDS011;23733;53.254;10.430;2022-11-15T03:41:32;17.13;;;10.83;;
37895;SDS011;23733;53.254;10.430;2022-11-15T03:44:09;18.07;;;11.33;;
37895;SDS011;23733;53.254;10.430;2022-11-15T03:47:02;20.30;;;11.33;;
37895;SDS011;23733;53.254;10.430;2022-11-15T03:49:33;17.63;;;11.30;;
37895;SDS011;23733;53.254;10.430;2022-11-15T03:52:02;18.00;;;11.10;;
37895;SDS011;23733;53.254;10.430;2022-11-15T03:54:29;17.43;;;11.10;;
37895;SDS011;23733;53.254;10.430;2022-11-15T03:56:55;19.60;;;12.37;;
37895;SDS011;23733;53.254;10.430;2022-11-15T03:59:22;19.67;;;11.63;;
37895;SDS011;23733;53.254;10.430;2022-11-15T04:01:48;18.97;;;11.93;;
37895;SDS011;23733;53.254;10.430;2022-11-15T04:04:14;19.33;;;11.90;;
37895;SDS011;23733;53.254;10.430;2022-11-15T04:06:40;16.03;;;10.57;;
37895;SDS011;23733;53.254;10.430;2022-11-15T04:09:06;16.53;;;11.83;;
37895;SDS011;23733;53.254;10.430;2022-11-15T04:11:32;16.80;;;11.57;;
37895;SDS011;23733;53.254;10.430;2022-11-15T04:13:58;20.87;;;11.50;;
37895;SDS011;23733;53.254;10.430;2022-11-15T04:16:24;16.93;;;11.03;;
37895;SDS011;23733;53.254;10.430;2022-11-15T04:18:50;17.00;;;11.20;;
37895;SDS011;23733;53.254;10.430;2022-11-15T04:21:36;16.07;;;11.00;;
37895;SDS011;23733;53.254;10.430;2022-11-15T04:24:20;20.17;;;11.77;;
37895;SDS011;23733;53.254;10.430;2022-11-15T04:26:47;16.57;;;11.10;;
37895;SDS011;23733;53.254;10.430;2022-11-15T04:29:13;16.87;;;11.47;;
37895;SDS011;23733;53.254;10.430;2022-11-15T04:31:57;14.90;;;10.60;;
37895;SDS011;23733;53.254;10.430;2022-11-15T04:34:23;18.47;;;11.67;;
37895;SDS011;23733;53.254;10.430;2022-11-15T04:36:49;19.77;;;12.87;;
37895;SDS011;23733;53.254;10.430;2022-11-15T04:39:34;18.93;;;12.23;;
37895;SDS011;23733;53.254;10.430;2022-11-15T04:42:00;17.57;;;12.40;;
37895;SDS011;23733;53.254;10.430;2022-11-15T04:44:26;18.17;;;12.43;;
37895;SDS011;23733;53.254;10.430;2022-11-15T04:46:52;18.13;;;11.40;;
37895;SDS011;23733;53.254;10.430;2022-11-15T04:49:18;19.37;;;12.17;;
37895;SDS011;23733;53.254;10.430;2022-11-15T04:51:44;17.60;;;11.93;;
37895;SDS011;23733;53.254;10.430;2022-11-15T04:54:10;19.23;;;12.47;;
37895;SDS011;23733;53.254;10.430;2022-11-15T04:56:36;20.47;;;12.73;;
37895;SDS011;23733;53.254;10.430;2022-11-15T04:59:02;20.47;;;12.90;;
37895;SDS011;23733;53.254;10.430;2022-11-15T05:01:28;19.77;;;12.00;;
37895;SDS011;23733;53.254;10.430;2022-11-15T05:03:54;18.70;;;12.43;;
37895;SDS011;23733;53.254;10.430;2022-11-15T05:06:39;21.23;;;12.93;;
37895;SDS011;23733;53.254;10.430;2022-11-15T05:09:05;19.40;;;12.40;;
37895;SDS011;23733;53.254;10.430;2022-11-15T05:11:31;21.10;;;12.17;;
37895;SDS011;23733;53.254;10.430;2022-11-15T05:13:57;22.10;;;13.17;;
37895;SDS011;23733;53.254;10.430;2022-11-15T05:16:23;24.30;;;13.37;;
37895;SDS011;23733;53.254;10.430;2022-11-15T05:18:52;21.97;;;14.33;;
37895;SDS011;23733;53.254;10.430;2022-11-15T05:21:19;20.57;;;13.53;;
37895;SDS011;23733;53.254;10.430;2022-11-15T05:23:46;21.23;;;12.97;;
37895;SDS011;23733;53.254;10.430;2022-11-15T05:26:12;20.43;;;12.30;;
37895;SDS011;23733;53.254;10.430;2022-11-15T05:28:40;23.07;;;14.80;;
37895;SDS011;23733;53.254;10.430;2022-11-15T05:31:10;20.50;;;13.37;;
37895;SDS011;23733;53.254;10.430;2022-11-15T05:33:37;17.67;;;11.83;;
37895;SDS011;23733;53.254;10.430;2022-11-15T05:36:07;16.67;;;11.77;;
37895;SDS011;23733;53.254;10.430;2022-11-15T05:38:52;18.50;;;11.23;;
37895;SDS011;23733;53.254;10.430;2022-11-15T05:41:19;20.23;;;11.67;;
37895;SDS011;23733;53.254;10.430;2022-11-15T05:43:50;19.53;;;11.80;;
37895;SDS011;23733;53.254;10.430;2022-11-15T05:46:17;16.63;;;11.10;;
37895;SDS011;23733;53.254;10.430;2022-11-15T05:48:44;19.13;;;11.60;;
37895;SDS011;23733;53.254;10.430;2022-11-15T05:51:13;15.67;;;10.00;;
37895;SDS011;23733;53.254;10.430;2022-11-15T05:53:42;19.00;;;11.13;;
37895;SDS011;23733;53.254;10.430;2022-11-15T05:56:09;17.07;;;11.23;;
37895;SDS011;23733;53.254;10.430;2022-11-15T05:58:36;18.90;;;11.73;;
37895;SDS011;23733;53.254;10.430;2022-11-15T06:01:02;16.47;;;11.07;;
37895;SDS011;23733;53.254;10.430;2022-11-15T06:03:28;16.80;;;11.07;;
37895;SDS011;23733;53.254;10.430;2022-11-15T06:05:55;18.37;;;11.30;;
37895;SDS011;23733;53.254;10.430;2022-11-15T06:08:22;16.50;;;11.37;;
37895;SDS011;23733;53.254;10.430;2022-11-15T06:10:48;19.20;;;11.77;;
37895;SDS011;23733;53.254;10.430;2022-11-15T06:13:14;18.13;;;11.73;;
37895;SDS011;23733;53.254;10.430;2022-11-15T06:15:40;21.73;;;12.57;;
37895;SDS011;23733;53.254;10.430;2022-11-15T06:18:06;18.73;;;12.13;;
37895;SDS011;23733;53.254;10.430;2022-11-15T06:20:32;21.70;;;12.17;;
37895;SDS011;23733;53.254;10.430;2022-11-15T06:22:58;19.07;;;12.00;;
37895;SDS011;23733;53.254;10.430;2022-11-15T06:25:26;16.27;;;11.93;;
37895;SDS011;23733;53.254;10.430;2022-11-15T06:27:53;17.70;;;12.80;;
37895;SDS011;23733;53.254;10.430;2022-11-15T06:30:20;21.47;;;13.13;;
37895;SDS011;23733;53.254;10.430;2022-11-15T06:32:47;18.37;;;12.63;;
37895;SDS011;23733;53.254;10.430;2022-11-15T06:35:13;17.70;;;12.43;;
37895;SDS011;23733;53.254;10.430;2022-11-15T06:37:40;18.20;;;12.17;;
37895;SDS011;23733;53.254;10.430;2022-11-15T06:40:07;18.63;;;13.00;;
37895;SDS011;23733;53.254;10.430;2022-11-15T06:42:33;22.40;;;13.70;;
37895;SDS011;23733;53.254;10.430;2022-11-15T06:45:00;19.93;;;12.80;;
37895;SDS011;23733;53.254;10.430;2022-11-15T06:47:26;20.00;;;13.95;;
37895;SDS011;23733;53.254;10.430;2022-11-15T06:49:53;19.63;;;12.77;;
37895;SDS011;23733;53.254;10.430;2022-11-15T06:52:19;17.87;;;11.20;;
37895;SDS011;23733;53.254;10.430;2022-11-15T06:54:45;17.67;;;12.03;;
37895;SDS011;23733;53.254;10.430;2022-11-15T06:57:11;17.30;;;11.67;;
37895;SDS011;23733;53.254;10.430;2022-11-15T06:59:37;21.48;;;13.52;;
37895;SDS011;23733;53.254;10.430;2022-11-15T07:02:03;17.27;;;11.77;;
37895;SDS011;23733;53.254;10.430;2022-11-15T07:04:29;18.00;;;11.80;;
37895;SDS011;23733;53.254;10.430;2022-11-15T07:06:55;19.37;;;12.50;;
37895;SDS011;23733;53.254;10.430;2022-11-15T07:09:21;18.77;;;12.20;;
37895;SDS011;23733;53.254;10.430;2022-11-15T07:11:47;17.67;;;11.43;;
37895;SDS011;23733;53.254;10.430;2022-11-15T07:14:13;20.60;;;13.40;;
37895;SDS011;23733;53.254;10.430;2022-11-15T07:16:39;18.53;;;12.97;;
37895;SDS011;23733;53.254;10.430;2022-11-15T07:19:05;17.73;;;11.73;;
37895;SDS011;23733;53.254;10.430;2022-11-15T07:21:32;18.63;;;11.80;;
37895;SDS011;23733;53.254;10.430;2022-11-15T07:23:58;19.37;;;12.07;;
37895;SDS011;23733;53.254;10.430;2022-11-15T07:26:24;18.98;;;12.77;;
37895;SDS011;23733;53.254;10.430;2022-11-15T07:28:50;17.60;;;11.53;;
37895;SDS011;23733;53.254;10.430;2022-11-15T07:31:16;21.90;;;12.80;;
37895;SDS011;23733;53.254;10.430;2022-11-15T07:33:42;18.93;;;11.50;;
37895;SDS011;23733;53.254;10.430;2022-11-15T07:36:08;18.43;;;12.43;;
37895;SDS011;23733;53.254;10.430;2022-11-15T07:38:34;23.13;;;11.57;;
37895;SDS011;23733;53.254;10.430;2022-11-15T07:41:01;19.27;;;11.70;;
37895;SDS011;23733;53.254;10.430;2022-11-15T07:43:29;15.77;;;10.67;;
37895;SDS011;23733;53.254;10.430;2022-11-15T07:45:56;18.43;;;12.07;;
37895;SDS011;23733;53.254;10.430;2022-11-15T07:48:22;18.13;;;12.73;;
37895;SDS011;23733;53.254;10.430;2022-11-15T07:50:48;18.63;;;12.10;;
37895;SDS011;23733;53.254;10.430;2022-11-15T07:53:14;19.60;;;12.27;;
37895;SDS011;23733;53.254;10.430;2022-11-15T07:55:41;18.40;;;11.33;;
37895;SDS011;23733;53.254;10.430;2022-11-15T07:58:08;18.13;;;11.73;;
37895;SDS011;23733;53.254;10.430;2022-11-15T08:00:36;17.80;;;11.57;;
37895;SDS011;23733;53.254;10.430;2022-11-15T08:03:03;18.63;;;11.03;;
37895;SDS011;23733;53.254;10.430;2022-11-15T08:05:30;19.30;;;11.40;;
37895;SDS011;23733;53.254;10.430;2022-11-15T08:07:56;20.37;;;12.00;;
37895;SDS011;23733;53.254;10.430;2022-11-15T08:10:23;17.70;;;11.60;;
37895;SDS011;23733;53.254;10.430;2022-11-15T08:12:56;20.00;;;12.17;;
37895;SDS011;23733;53.254;10.430;2022-11-15T08:15:26;17.13;;;11.53;;
37895;SDS011;23733;53.254;10.430;2022-11-15T08:17:53;22.03;;;12.70;;
37895;SDS011;23733;53.254;10.430;2022-11-15T08:20:20;17.77;;;11.67;;
37895;SDS011;23733;53.254;10.430;2022-11-15T08:22:46;19.10;;;11.67;;
37895;SDS011;23733;53.254;10.430;2022-11-15T08:25:12;16.27;;;10.93;;
37895;SDS011;23733;53.254;10.430;2022-11-15T08:27:38;16.33;;;11.47;;
37895;SDS011;23733;53.254;10.430;2022-11-15T08:30:04;18.57;;;12.03;;
37895;SDS011;23733;53.254;10.430;2022-11-15T08:32:31;18.13;;;11.37;;
37895;SDS011;23733;53.254;10.430;2022-11-15T08:34:57;17.87;;;11.27;;
37895;SDS011;23733;53.254;10.430;2022-11-15T08:37:23;21.20;;;11.73;;
37895;SDS011;23733;53.254;10.430;2022-11-15T08:39:49;15.90;;;11.10;;
37895;SDS011;23733;53.254;10.430;2022-11-15T08:42:15;15.97;;;10.10;;
37895;SDS011;23733;53.254;10.430;2022-11-15T08:44:42;15.20;;;10.67;;
37895;SDS011;23733;53.254;10.430;2022-11-15T08:47:09;15.80;;;11.03;;
37895;SDS011;23733;53.254;10.430;2022-11-15T08:49:36;17.87;;;10.07;;
37895;SDS011;23733;53.254;10.430;2022-11-15T08:52:02;16.50;;;11.10;;
37895;SDS011;23733;53.254;10.430;2022-11-15T08:54:28;17.33;;;10.53;;
37895;SDS011;23733;53.254;10.430;2022-11-15T08:56:54;16.37;;;10.87;;
37895;SDS011;23733;53.254;10.430;2022-11-15T08:59:20;15.00;;;11.03;;
37895;SDS011;23733;53.254;10.430;2022-11-15T09:01:47;15.30;;;10.13;;
37895;SDS011;23733;53.254;10.430;2022-11-15T09:04:13;14.43;;;10.17;;
37895;SDS011;23733;53.254;10.430;2022-11-15T09:06:38;14.97;;;10.53;;
37895;SDS011;23733;53.254;10.430;2022-11-15T09:09:05;16.40;;;10.97;;
37895;SDS011;23733;53.254;10.430;2022-11-15T09:11:31;15.00;;;10.03;;
37895;SDS011;23733;53.254;10.430;2022-11-15T09:13:58;18.53;;;10.13;;
37895;SDS011;23733;53.254;10.430;2022-11-15T09:16:24;14.67;;;10.13;;
37895;SDS011;23733;53.254;10.430;2022-11-15T09:18:50;15.07;;;9.97;;
37895;SDS011;23733;53.254;10.430;2022-11-15T09:21:17;16.70;;;10.53;;
37895;SDS011;23733;53.254;10.430;2022-11-15T09:23:43;15.10;;;9.93;;
37895;SDS011;23733;53.254;10.430;2022-11-15T09:26:09;15.23;;;9.87;;
37895;SDS011;23733;53.254;10.430;2022-11-15T09:28:36;15.93;;;9.93;;
37895;SDS011;23733;53.254;10.430;2022-11-15T09:31:04;16.07;;;10.20;;
37895;SDS011;23733;53.254;10.430;2022-11-15T09:33:31;15.70;;;10.37;;
37895;SDS011;23733;53.254;10.430;2022-11-15T09:36:00;13.73;;;9.77;;
37895;SDS011;23733;53.254;10.430;2022-11-15T09:38:27;16.10;;;9.93;;
37895;SDS011;23733;53.254;10.430;2022-11-15T09:40:57;14.87;;;10.10;;
37895;SDS011;23733;53.254;10.430;2022-11-15T09:48:55;20.03;;;9.17;;
37895;SDS011;23733;53.254;10.430;2022-11-15T09:54:04;13.83;;;9.53;;
37895;SDS011;23733;53.254;10.430;2022-11-15T09:56:38;17.07;;;9.20;;
37895;SDS011;23733;53.254;10.430;2022-11-15T09:59:13;14.97;;;9.43;;
37895;SDS011;23733;53.254;10.430;2022-11-15T10:04:24;13.80;;;8.70;;
37895;SDS011;23733;53.254;10.430;2022-11-15T10:07:02;13.97;;;8.23;;
37895;SDS011;23733;53.254;10.430;2022-11-15T10:09:39;12.23;;;8.07;;
37895;SDS011;23733;53.254;10.430;2022-11-15T10:12:08;13.73;;;8.73;;
37895;SDS011;23733;53.254;10.430;2022-11-15T10:14:35;9.90;;;6.90;;
37895;SDS011;23733;53.254;10.430;2022-11-15T10:17:17;11.17;;;7.53;;
37895;SDS011;23733;53.254;10.430;2022-11-15T10:24:46;11.97;;;7.63;;
37895;SDS011;23733;53.254;10.430;2022-11-15T10:27:14;11.13;;;7.53;;
37895;SDS011;23733;53.254;10.430;2022-11-15T10:29:43;11.77;;;8.00;;
37895;SDS011;23733;53.254;10.430;2022-11-15T10:32:11;11.37;;;7.60;;
37895;SDS011;23733;53.254;10.430;2022-11-15T10:34:37;9.53;;;7.07;;
37895;SDS011;23733;53.254;10.430;2022-11-15T10:37:03;11.97;;;6.87;;
37895;SDS011;23733;53.254;10.430;2022-11-15T10:39:30;11.57;;;7.60;;
37895;SDS011;23733;53.254;10.430;2022-11-15T10:42:02;12.30;;;8.27;;
37895;SDS011;23733;53.254;10.430;2022-11-15T10:44:42;10.40;;;6.93;;
37895;SDS011;23733;53.254;10.430;2022-11-15T10:50:00;10.60;;;7.50;;
37895;SDS011;23733;53.254;10.430;2022-11-15T10:52:27;9.77;;;6.93;;
37895;SDS011;23733;53.254;10.430;2022-11-15T10:57:25;10.63;;;7.47;;
37895;SDS011;23733;53.254;10.430;2022-11-15T11:02:38;11.30;;;7.03;;
37895;SDS011;23733;53.254;10.430;2022-11-15T11:05:06;9.50;;;6.40;;
37895;SDS011;23733;53.254;10.430;2022-11-15T11:07:34;8.70;;;6.90;;
37895;SDS011;23733;53.254;10.430;2022-11-15T11:12:32;10.57;;;6.30;;
37895;SDS011;23733;53.254;10.430;2022-11-15T11:14:59;8.63;;;5.97;;
37895;SDS011;23733;53.254;10.430;2022-11-15T11:20:10;10.13;;;6.13;;
37895;SDS011;23733;53.254;10.430;2022-11-15T11:25:41;11.20;;;6.70;;
37895;SDS011;23733;53.254;10.430;2022-11-15T11:31:10;8.60;;;6.07;;
37895;SDS011;23733;53.254;10.430;2022-11-15T11:33:44;11.40;;;6.27;;
37895;SDS011;23733;53.254;10.430;2022-11-15T11:42:19;10.10;;;6.37;;
37895;SDS011;23733;53.254;10.430;2022-11-15T11:47:46;9.30;;;6.47;;
37895;SDS011;23733;53.254;10.430;2022-11-15T11:50:19;10.50;;;6.17;;
37895;SDS011;23733;53.254;10.430;2022-11-15T11:52:59;8.37;;;6.17;;
37895;SDS011;23733;53.254;10.430;2022-11-15T11:55:36;9.10;;;6.30;;
37895;SDS011;23733;53.254;10.430;2022-11-15T12:01:02;11.10;;;6.77;;
37895;SDS011;23733;53.254;10.430;2022-11-15T12:03:41;9.80;;;6.17;;
37895;SDS011;23733;53.254;10.430;2022-11-15T12:08:50;8.20;;;5.80;;
37895;SDS011;23733;53.254;10.430;2022-11-15T12:11:35;10.70;;;6.10;;
37895;SDS011;23733;53.254;10.430;2022-11-15T12:14:11;10.97;;;6.10;;
37895;SDS011;23733;53.254;10.430;2022-11-15T12:16:47;9.63;;;5.83;;
37895;SDS011;23733;53.254;10.430;2022-11-15T12:19:13;9.43;;;5.20;;
37895;SDS011;23733;53.254;10.430;2022-11-15T12:21:43;7.30;;;5.77;;
37895;SDS011;23733;53.254;10.430;2022-11-15T12:24:15;9.30;;;5.30;;
37895;SDS011;23733;53.254;10.430;2022-11-15T12:27:15;7.83;;;5.13;;
37895;SDS011;23733;53.254;10.430;2022-11-15T12:29:49;9.63;;;5.80;;
37895;SDS011;23733;53.254;10.430;2022-11-15T12:32:24;9.07;;;5.73;;
37895;SDS011;23733;53.254;10.430;2022-11-15T12:34:52;10.70;;;5.30;;
37895;SDS011;23733;53.254;10.430;2022-11-15T12:42:36;7.80;;;5.27;;
37895;SDS011;23733;53.254;10.430;2022-11-15T12:45:24;7.40;;;5.40;;
37895;SDS011;23733;53.254;10.430;2022-11-15T12:58:49;9.67;;;6.37;;
37895;SDS011;23733;53.254;10.430;2022-11-15T13:06:57;9.77;;;6.20;;
37895;SDS011;23733;53.254;10.430;2022-11-15T13:20:00;11.73;;;5.77;;
37895;SDS011;23733;53.254;10.430;2022-11-15T13:22:27;9.73;;;5.63;;
37895;SDS011;23733;53.254;10.430;2022-11-15T13:27:51;9.97;;;5.80;;
37895;SDS011;23733;53.254;10.430;2022-11-15T13:30:24;12.20;;;5.70;;
37895;SDS011;23733;53.254;10.430;2022-11-15T13:32:51;8.93;;;6.27;;
37895;SDS011;23733;53.254;10.430;2022-11-15T13:35:22;8.93;;;5.67;;
37895;SDS011;23733;53.254;10.430;2022-11-15T13:37:49;10.20;;;5.60;;
37895;SDS011;23733;53.254;10.430;2022-11-15T13:40:24;8.97;;;5.83;;
37895;SDS011;23733;53.254;10.430;2022-11-15T13:42:53;8.97;;;6.60;;
37895;SDS011;23733;53.254;10.430;2022-11-15T13:45:19;9.87;;;6.07;;
37895;SDS011;23733;53.254;10.430;2022-11-15T13:47:56;8.97;;;6.40;;
37895;SDS011;23733;53.254;10.430;2022-11-15T13:50:25;9.33;;;6.30;;
37895;SDS011;23733;53.254;10.430;2022-11-15T13:52:52;9.30;;;5.27;;
37895;SDS011;23733;53.254;10.430;2022-11-15T13:55:20;7.73;;;5.50;;
37895;SDS011;23733;53.254;10.430;2022-11-15T13:57:51;6.03;;;4.80;;
37895;SDS011;23733;53.254;10.430;2022-11-15T14:00:25;11.07;;;5.30;;
37895;SDS011;23733;53.254;10.430;2022-11-15T14:02:53;9.17;;;6.53;;
37895;SDS011;23733;53.254;10.430;2022-11-15T14:05:21;7.77;;;5.60;;
37895;SDS011;23733;53.254;10.430;2022-11-15T14:07:57;11.57;;;5.80;;
37895;SDS011;23733;53.254;10.430;2022-11-15T14:10:25;9.60;;;5.80;;
37895;SDS011;23733;53.254;10.430;2022-11-15T14:12:53;11.63;;;6.00;;
37895;SDS011;23733;53.254;10.430;2022-11-15T14:15:25;7.17;;;5.30;;
37895;SDS011;23733;53.254;10.430;2022-11-15T14:17:52;7.23;;;5.13;;
37895;SDS011;23733;53.254;10.430;2022-11-15T14:22:54;11.10;;;5.83;;
37895;SDS011;23733;53.254;10.430;2022-11-15T14:30:33;6.30;;;5.20;;
37895;SDS011;23733;53.254;10.430;2022-11-15T14:32:59;8.87;;;6.27;;
37895;SDS011;23733;53.254;10.430;2022-11-15T14:35:25;11.47;;;5.90;;
37895;SDS011;23733;53.254;10.430;2022-11-15T14:37:52;7.70;;;4.90;;
37895;SDS011;23733;53.254;10.430;2022-11-15T14:40:20;7.10;;;5.20;;
37895;SDS011;23733;53.254;10.430;2022-11-15T14:42:47;6.77;;;5.37;;
37895;SDS011;23733;53.254;10.430;2022-11-15T14:45:15;8.03;;;5.80;;
37895;SDS011;23733;53.254;10.430;2022-11-15T14:47:42;11.47;;;5.80;;
37895;SDS011;23733;53.254;10.430;2022-11-15T14:50:12;7.07;;;5.17;;
37895;SDS011;23733;53.254;10.430;2022-11-15T14:52:39;7.37;;;5.30;;
37895;SDS011;23733;53.254;10.430;2022-11-15T14:55:14;9.97;;;5.70;;
37895;SDS011;23733;53.254;10.430;2022-11-15T14:57:42;8.10;;;5.47;;
37895;SDS011;23733;53.254;10.430;2022-11-15T15:00:08;8.00;;;5.27;;
37895;SDS011;23733;53.254;10.430;2022-11-15T15:02:35;7.77;;;5.07;;
37895;SDS011;23733;53.254;10.430;2022-11-15T15:05:07;9.13;;;5.67;;
37895;SDS011;23733;53.254;10.430;2022-11-15T15:07:40;11.77;;;5.63;;
37895;SDS011;23733;53.254;10.430;2022-11-15T15:10:06;8.93;;;5.07;;
37895;SDS011;23733;53.254;10.430;2022-11-15T15:12:33;10.03;;;5.60;;
37895;SDS011;23733;53.254;10.430;2022-11-15T15:14:59;6.97;;;5.10;;
37895;SDS011;23733;53.254;10.430;2022-11-15T15:17:25;10.63;;;5.70;;
37895;SDS011;23733;53.254;10.430;2022-11-15T15:19:51;11.27;;;5.63;;
37895;SDS011;23733;53.254;10.430;2022-11-15T15:22:18;8.03;;;5.37;;
37895;SDS011;23733;53.254;10.430;2022-11-15T15:24:47;8.83;;;5.57;;
37895;SDS011;23733;53.254;10.430;2022-11-15T15:27:13;10.17;;;6.40;;
37895;SDS011;23733;53.254;10.430;2022-11-15T15:29:39;7.27;;;5.20;;
37895;SDS011;23733;53.254;10.430;2022-11-15T15:32:06;10.37;;;5.47;;
37895;SDS011;23733;53.254;10.430;2022-11-15T15:34:33;7.20;;;5.13;;
37895;SDS011;23733;53.254;10.430;2022-11-15T15:39:35;7.10;;;5.30;;
37895;SDS011;23733;53.254;10.430;2022-11-15T15:42:01;11.47;;;5.83;;
37895;SDS011;23733;53.254;10.430;2022-11-15T15:44:27;8.30;;;5.30;;
37895;SDS011;23733;53.254;10.430;2022-11-15T15:46:53;8.17;;;5.37;;
37895;SDS011;23733;53.254;10.430;2022-11-15T15:49:18;7.20;;;4.93;;
37895;SDS011;23733;53.254;10.430;2022-11-15T15:51:44;10.30;;;5.43;;
37895;SDS011;23733;53.254;10.430;2022-11-15T15:54:10;9.70;;;5.30;;
37895;SDS011;23733;53.254;10.430;2022-11-15T15:56:37;6.10;;;4.73;;
37895;SDS011;23733;53.254;10.430;2022-11-15T15:59:03;6.73;;;4.87;;
37895;SDS011;23733;53.254;10.430;2022-11-15T16:01:29;8.47;;;5.80;;
37895;SDS011;23733;53.254;10.430;2022-11-15T16:03:54;7.33;;;5.03;;
37895;SDS011;23733;53.254;10.430;2022-11-15T16:06:34;9.83;;;5.57;;
37895;SDS011;23733;53.254;10.430;2022-11-15T16:09:01;8.43;;;5.77;;
37895;SDS011;23733;53.254;10.430;2022-11-15T16:11:28;13.33;;;5.57;;
37895;SDS011;23733;53.254;10.430;2022-11-15T16:13:54;7.53;;;5.63;;
37895;SDS011;23733;53.254;10.430;2022-11-15T16:16:21;8.47;;;6.00;;
37895;SDS011;23733;53.254;10.430;2022-11-15T16:18:47;8.53;;;5.87;;
37895;SDS011;23733;53.254;10.430;2022-11-15T16:21:13;10.53;;;5.37;;
37895;SDS011;23733;53.254;10.430;2022-11-15T16:23:39;12.37;;;6.33;;